createdAt,value
2024-02-21T00:01:11.576Z,99.0
2024-02-21T00:03:12.239Z,99.0
2024-02-21T00:06:12.827Z,99.0
2024-02-21T00:08:13.569Z,99.0
2024-02-21T00:11:14.632Z,99.0
2024-02-21T00:13:15.534Z,99.0
2024-02-21T00:16:16.309Z,99.0
2024-02-21T00:18:17.055Z,99.0
2024-02-21T00:21:17.858Z,99.0
2024-02-21T00:24:18.433Z,99.0
2024-02-21T00:26:18.979Z,99.0
2024-02-21T00:31:19.639Z,99.0
2024-02-21T00:34:20.579Z,99.0
2024-02-21T00:36:21.525Z,99.0
2024-02-21T00:39:22.184Z,99.0
2024-02-21T00:41:22.899Z,99.0
2024-02-21T00:44:23.570Z,99.0
2024-02-21T00:46:24.319Z,99.0
2024-02-21T00:49:25.103Z,99.0
2024-02-21T00:51:25.715Z,99.0
2024-02-21T00:54:36.887Z,99.0
2024-02-21T00:56:51.274Z,99.0
2024-02-21T00:59:51.826Z,99.0
2024-02-21T01:01:52.565Z,99.0
2024-02-21T01:04:53.442Z,99.0
2024-02-21T01:06:54.083Z,99.0
2024-02-21T01:11:54.839Z,99.0
2024-02-21T01:14:55.619Z,99.0
2024-02-21T01:16:56.787Z,99.0
2024-02-21T01:19:57.559Z,99.0
2024-02-21T01:21:58.232Z,99.0
2024-02-21T01:24:58.794Z,99.0
2024-02-21T01:26:59.343Z,99.0
2024-02-21T01:30:00.025Z,99.0
2024-02-21T01:32:00.736Z,99.0
2024-02-21T01:35:01.582Z,99.0
2024-02-21T01:38:02.610Z,99.0
2024-02-21T01:40:03.219Z,99.0
2024-02-21T01:43:03.780Z,99.0
2024-02-21T01:45:04.345Z,99.0
2024-02-21T01:48:05.043Z,99.0
2024-02-21T01:53:05.747Z,99.0
2024-02-21T01:55:06.617Z,99.0
2024-02-21T01:58:07.204Z,99.0
2024-02-21T02:00:07.879Z,99.0
2024-02-21T02:03:08.514Z,99.0
2024-02-21T02:05:09.242Z,99.0
2024-02-21T02:08:10.002Z,99.0
2024-02-21T02:11:10.887Z,99.0
2024-02-21T02:13:11.718Z,99.0
2024-02-21T02:16:12.573Z,99.0
2024-02-21T02:18:13.294Z,99.0
2024-02-21T02:21:13.995Z,99.0
2024-02-21T02:23:14.527Z,99.0
2024-02-21T02:26:15.079Z,99.0
2024-02-21T02:28:15.647Z,99.0
2024-02-21T02:33:16.377Z,99.0
2024-02-21T02:36:17.100Z,99.0
2024-02-21T02:38:17.640Z,99.0
2024-02-21T02:41:18.176Z,99.0
2024-02-21T02:43:18.858Z,99.0
2024-02-21T02:46:19.543Z,99.0
2024-02-21T02:48:20.288Z,99.0
2024-02-21T02:51:21.062Z,99.0
2024-02-21T02:53:21.701Z,99.0
2024-02-21T02:56:22.342Z,99.0
2024-02-21T02:58:23.020Z,99.0
2024-02-21T03:01:24.007Z,99.0
2024-02-21T03:04:25.065Z,99.0
2024-02-21T03:06:26.282Z,99.0
2024-02-21T03:09:26.885Z,99.0
2024-02-21T03:14:27.450Z,99.0
2024-02-21T03:16:28.089Z,99.0
2024-02-21T03:19:28.866Z,99.0
2024-02-21T03:21:29.609Z,99.0
2024-02-21T03:24:30.212Z,99.0
2024-02-21T03:26:30.784Z,99.0
2024-02-21T03:29:31.491Z,99.0
2024-02-21T03:31:33.098Z,99.0
2024-02-21T03:34:33.993Z,99.0
2024-02-21T03:37:34.684Z,99.0
2024-02-21T03:39:35.276Z,99.0
2024-02-21T03:42:35.844Z,99.0
2024-02-21T03:44:36.421Z,99.0
2024-02-21T03:47:37.010Z,99.0
2024-02-21T03:49:37.878Z,99.0
2024-02-21T03:54:38.559Z,99.0
2024-02-21T03:57:39.229Z,99.0
2024-02-21T03:59:44.828Z,99.0
2024-02-21T04:02:45.680Z,99.0
2024-02-21T04:04:46.344Z,99.0
2024-02-21T04:07:47.158Z,99.0
2024-02-21T04:09:47.821Z,99.0
2024-02-21T04:12:48.356Z,99.0
2024-02-21T04:14:48.902Z,99.0
2024-02-21T04:17:49.621Z,99.0
2024-02-21T04:19:50.451Z,99.0
2024-02-21T04:22:51.283Z,99.0
2024-02-21T04:27:51.919Z,99.0
2024-02-21T04:30:52.450Z,99.0
2024-02-21T04:35:53.003Z,99.0
2024-02-21T04:37:53.648Z,99.0
2024-02-21T04:40:54.442Z,99.0
2024-02-21T04:42:55.158Z,99.0
2024-02-21T04:45:55.741Z,99.0
2024-02-21T04:47:56.364Z,99.0
2024-02-21T04:50:57.004Z,99.0
2024-02-21T04:52:57.744Z,99.0
2024-02-21T04:55:58.665Z,99.0
2024-02-21T04:57:59.258Z,99.0
2024-02-21T05:00:59.885Z,99.0
2024-02-21T05:04:00.727Z,99.0
2024-02-21T05:06:01.551Z,99.0
2024-02-21T05:09:02.327Z,99.0
2024-02-21T05:11:03.188Z,99.0
2024-02-21T05:16:03.831Z,99.0
2024-02-21T05:19:04.507Z,99.0
2024-02-21T05:21:05.338Z,99.0
2024-02-21T05:24:05.909Z,99.0
2024-02-21T05:26:06.618Z,99.0
2024-02-21T05:29:07.409Z,99.0
2024-02-21T05:31:08.072Z,99.0
2024-02-21T05:34:08.680Z,99.0
2024-02-21T05:36:09.332Z,99.0
2024-02-21T05:39:09.875Z,99.0
2024-02-21T05:41:12.970Z,99.0
2024-02-21T05:44:13.679Z,99.0
2024-02-21T05:46:14.384Z,99.0
2024-02-21T05:49:15.268Z,99.0
2024-02-21T05:51:16.170Z,99.0
2024-02-21T05:57:16.781Z,99.0
2024-02-21T05:59:17.336Z,99.0
2024-02-21T06:02:17.999Z,99.0
2024-02-21T06:04:18.938Z,99.0
2024-02-21T06:07:19.949Z,99.0
2024-02-21T06:09:20.743Z,99.0
2024-02-21T06:12:21.436Z,99.0
2024-02-21T06:14:22.179Z,99.0
2024-02-21T06:17:22.752Z,99.0
2024-02-21T06:19:23.553Z,99.0
2024-02-21T06:22:24.408Z,99.0
2024-02-21T06:24:25.093Z,99.0
2024-02-21T06:27:25.853Z,99.0
2024-02-21T06:30:26.459Z,99.0
2024-02-21T06:32:27.141Z,99.0
2024-02-21T06:37:27.882Z,99.0
2024-02-21T06:40:28.614Z,99.0
2024-02-21T06:42:29.252Z,99.0
2024-02-21T06:45:29.804Z,99.0
2024-02-21T06:47:30.559Z,99.0
2024-02-21T06:50:31.233Z,99.0
2024-02-21T06:52:31.841Z,99.0
2024-02-21T06:55:32.593Z,99.0
2024-02-21T06:57:33.206Z,99.0
2024-02-21T07:00:33.845Z,99.0
2024-02-21T07:02:34.467Z,99.0
2024-02-21T07:05:35.616Z,99.0
2024-02-21T07:07:37.187Z,99.0
2024-02-21T07:10:38.296Z,99.0
2024-02-21T07:12:38.889Z,99.0
2024-02-21T07:18:39.531Z,99.0
2024-02-21T07:20:40.226Z,99.0
2024-02-21T07:23:40.810Z,99.0
2024-02-21T07:25:41.555Z,99.0
2024-02-21T07:28:42.476Z,99.0
2024-02-21T07:30:43.240Z,99.0
2024-02-21T07:33:44.038Z,99.0
2024-02-21T07:35:44.787Z,99.0
2024-02-21T07:38:45.431Z,99.0
2024-02-21T07:40:46.096Z,99.0
2024-02-21T07:43:46.830Z,99.0
2024-02-21T07:45:47.574Z,99.0
2024-02-21T07:48:48.225Z,99.0
2024-02-21T07:50:48.926Z,99.0
2024-02-21T07:53:49.618Z,99.0
2024-02-21T07:58:50.529Z,99.0
2024-02-21T08:01:51.248Z,99.0
2024-02-21T08:03:51.928Z,99.0
2024-02-21T08:06:52.569Z,99.0
2024-02-21T08:08:53.116Z,99.0
2024-02-21T08:11:53.786Z,99.0
2024-02-21T08:13:54.537Z,99.0
2024-02-21T08:16:55.321Z,99.0
2024-02-21T08:18:56.089Z,99.0
2024-02-21T08:21:57.112Z,99.0
2024-02-21T08:23:57.699Z,99.0
2024-02-21T08:26:58.265Z,99.0
2024-02-21T08:28:58.918Z,99.0
2024-02-21T08:31:59.847Z,99.0
2024-02-21T08:34:00.865Z,99.0
2024-02-21T08:39:01.702Z,99.0
2024-02-21T08:42:02.257Z,99.0
2024-02-21T08:44:02.920Z,99.0
2024-02-21T08:47:03.671Z,99.0
2024-02-21T08:50:19.315Z,99.0
2024-02-21T08:52:30.111Z,99.0
2024-02-21T08:57:30.798Z,99.0
2024-02-21T08:59:31.370Z,99.0
2024-02-21T09:02:32.130Z,99.0
2024-02-21T09:04:33.234Z,99.0
2024-02-21T09:07:34.482Z,99.0
2024-02-21T09:09:35.119Z,99.0
2024-02-21T09:12:35.659Z,99.0
2024-02-21T09:14:36.282Z,99.0
2024-02-21T09:20:36.896Z,99.0
2024-02-21T09:22:37.576Z,99.0
2024-02-21T09:25:38.258Z,99.0
2024-02-21T09:27:38.848Z,99.0
2024-02-21T09:30:39.448Z,99.0
2024-02-21T09:32:40.513Z,99.0
2024-02-21T09:35:41.575Z,99.0
2024-02-21T09:37:42.294Z,99.0
2024-02-21T09:40:43.004Z,99.0
2024-02-21T09:42:43.646Z,99.0
2024-02-21T09:45:44.189Z,99.0
2024-02-21T09:47:44.839Z,99.0
2024-02-21T09:50:45.539Z,99.0
2024-02-21T09:52:46.264Z,99.0
2024-02-21T09:55:47.021Z,99.0
2024-02-21T10:00:47.911Z,99.0
2024-02-21T10:03:48.570Z,99.0
2024-02-21T10:05:49.313Z,99.0
2024-02-21T10:08:50.010Z,99.0
2024-02-21T10:10:50.672Z,99.0
2024-02-21T10:13:51.458Z,99.0
2024-02-21T10:15:52.535Z,99.0
2024-02-21T10:18:53.160Z,99.0
2024-02-21T10:20:53.815Z,99.0
2024-02-21T10:23:54.369Z,99.0
2024-02-21T10:25:55.017Z,99.0
2024-02-21T10:28:56.001Z,99.0
2024-02-21T10:31:56.912Z,99.0
2024-02-21T10:33:57.846Z,99.0
2024-02-21T10:35:58.644Z,99.0
2024-02-21T10:40:59.442Z,99.0
2024-02-21T10:44:00.313Z,99.0
2024-02-21T10:47:01.229Z,99.0
2024-02-21T10:49:02.135Z,99.0
2024-02-21T10:52:02.963Z,99.0
2024-02-21T10:54:03.552Z,99.0
2024-02-21T10:57:04.579Z,99.0
2024-02-21T10:59:05.242Z,99.0
2024-02-21T11:02:07.066Z,99.0
2024-02-21T11:04:08.224Z,99.0
2024-02-21T11:07:11.986Z,99.0
2024-02-21T11:09:13.400Z,99.0
2024-02-21T11:12:14.827Z,99.0
2024-02-21T11:14:15.483Z,99.0
2024-02-21T11:17:16.124Z,99.0
2024-02-21T11:22:16.895Z,99.0
2024-02-21T11:24:17.481Z,99.0
2024-02-21T11:27:18.049Z,99.0
2024-02-21T11:29:18.592Z,4.0
2024-02-21T11:32:19.160Z,3.0
2024-02-21T11:35:19.774Z,1.0
2024-02-21T11:37:20.565Z,0.0
2024-02-21T11:40:21.283Z,3.0
2024-02-21T11:42:21.968Z,9.0
2024-02-21T11:45:22.529Z,12.0
2024-02-21T11:47:23.576Z,6.0
2024-02-21T11:50:24.352Z,15.0
2024-02-21T11:52:25.141Z,15.0
2024-02-21T11:55:25.926Z,18.0
2024-02-21T11:57:26.604Z,15.0
2024-02-21T12:02:27.273Z,16.0
2024-02-21T12:05:28.065Z,23.0
2024-02-21T12:08:29.059Z,26.0
2024-02-21T12:10:29.831Z,26.0
2024-02-21T12:13:30.645Z,26.0
2024-02-21T12:15:31.296Z,29.0
2024-02-21T12:18:32.039Z,27.0
2024-02-21T12:20:32.740Z,26.0
2024-02-21T12:23:33.277Z,24.0
2024-02-21T12:25:33.953Z,24.0
2024-02-21T12:28:34.680Z,28.0
2024-02-21T12:30:35.303Z,28.0
2024-02-21T12:33:35.916Z,31.0
2024-02-21T12:35:36.677Z,29.0
2024-02-21T12:38:37.462Z,35.0
2024-02-21T12:43:38.118Z,34.0
2024-02-21T12:45:38.698Z,38.0
2024-02-21T12:48:39.235Z,32.0
2024-02-21T12:50:40.032Z,37.0
2024-02-21T12:53:41.013Z,36.0
2024-02-21T12:56:41.595Z,35.0
2024-02-21T12:58:42.259Z,38.0
2024-02-21T13:01:43.116Z,40.0
2024-02-21T13:03:43.841Z,43.0
2024-02-21T13:06:44.463Z,38.0
2024-02-21T13:08:45.054Z,40.0
2024-02-21T13:11:45.836Z,42.0
2024-02-21T13:13:46.737Z,39.0
2024-02-21T13:16:47.763Z,38.0
2024-02-21T13:18:48.759Z,39.0
2024-02-21T13:23:49.766Z,39.0
2024-02-21T13:26:50.311Z,38.0
2024-02-21T13:28:51.025Z,38.0
2024-02-21T13:31:51.862Z,40.0
2024-02-21T13:34:52.644Z,38.0
2024-02-21T13:36:53.505Z,38.0
2024-02-21T13:38:54.154Z,40.0
2024-02-21T13:41:54.762Z,39.0
2024-02-21T13:44:55.368Z,40.0
2024-02-21T13:46:56.042Z,40.0
2024-02-21T13:49:56.807Z,39.0
2024-02-21T13:51:57.455Z,39.0
2024-02-21T13:54:58.012Z,37.0
2024-02-21T13:56:58.613Z,39.0
2024-02-21T13:59:59.191Z,41.0
2024-02-21T14:04:59.822Z,41.0
2024-02-21T14:07:00.760Z,41.0
2024-02-21T14:10:01.485Z,41.0
2024-02-21T14:12:02.200Z,41.0
2024-02-21T14:15:02.927Z,42.0
2024-02-21T14:17:03.681Z,40.0
2024-02-21T14:20:04.541Z,41.0
2024-02-21T14:23:05.313Z,42.0
2024-02-21T14:25:06.407Z,43.0
2024-02-21T14:28:06.987Z,42.0
2024-02-21T14:30:07.582Z,39.0
2024-02-21T14:33:08.298Z,40.0
2024-02-21T14:35:09.211Z,38.0
2024-02-21T14:38:10.171Z,42.0
2024-02-21T14:40:10.841Z,42.0
2024-02-21T14:45:11.410Z,39.0
2024-02-21T14:48:12.176Z,40.0
2024-02-21T14:50:13.135Z,41.0
2024-02-21T14:53:13.970Z,40.0
2024-02-21T14:56:14.706Z,42.0
2024-02-21T14:58:15.321Z,39.0
2024-02-21T15:01:15.951Z,37.0
2024-02-21T15:03:16.562Z,38.0
2024-02-21T15:06:17.191Z,38.0
2024-02-21T15:08:18.017Z,37.0
2024-02-21T15:11:19.039Z,37.0
2024-02-21T15:13:20.126Z,39.0
2024-02-21T15:16:20.912Z,39.0
2024-02-21T15:21:21.503Z,40.0
2024-02-21T15:26:22.042Z,39.0
2024-02-21T15:28:22.873Z,39.0
2024-02-21T15:31:23.787Z,38.0
2024-02-21T15:33:24.755Z,37.0
2024-02-21T15:36:25.622Z,37.0
2024-02-21T15:39:26.333Z,38.0
2024-02-21T15:41:26.948Z,36.0
2024-02-21T15:44:27.505Z,35.0
2024-02-21T15:46:28.216Z,36.0
2024-02-21T15:49:29.558Z,36.0
2024-02-21T15:51:30.407Z,36.0
2024-02-21T15:54:31.176Z,36.0
2024-02-21T15:56:31.779Z,35.0
2024-02-21T15:59:32.335Z,35.0
2024-02-21T16:01:33.064Z,35.0
2024-02-21T16:06:33.832Z,31.0
2024-02-21T16:09:34.524Z,31.0
2024-02-21T16:11:35.395Z,32.0
2024-02-21T16:14:36.286Z,31.0
2024-02-21T16:17:36.850Z,25.0
2024-02-21T16:19:37.714Z,22.0
2024-02-21T16:22:38.615Z,21.0
2024-02-21T16:24:39.261Z,19.0
2024-02-21T16:27:39.793Z,15.0
2024-02-21T16:29:40.359Z,13.0
2024-02-21T16:32:40.899Z,12.0
2024-02-21T16:34:41.575Z,12.0
2024-02-21T16:37:42.468Z,11.0
2024-02-21T16:39:43.123Z,9.0
2024-02-21T16:42:43.665Z,8.0
2024-02-21T16:47:44.247Z,9.0
2024-02-21T16:49:45.044Z,9.0
2024-02-21T16:52:46.154Z,10.0
2024-02-21T16:54:46.802Z,10.0
2024-02-21T16:57:47.374Z,10.0
2024-02-21T16:59:47.987Z,11.0
2024-02-21T17:02:59.650Z,13.0
2024-02-21T17:05:01.590Z,13.0
2024-02-21T17:08:02.761Z,13.0
2024-02-21T17:10:03.469Z,13.0
2024-02-21T17:13:04.035Z,13.0
2024-02-21T17:15:04.609Z,14.0
2024-02-21T17:18:05.216Z,16.0
2024-02-21T17:20:06.059Z,16.0
2024-02-21T17:23:07.076Z,12.0
2024-02-21T17:28:07.909Z,13.0
2024-02-21T17:31:08.422Z,13.0
2024-02-21T17:33:09.187Z,12.0
2024-02-21T17:36:13.487Z,12.0
2024-02-21T17:38:14.366Z,11.0
2024-02-21T17:41:15.074Z,9.0
2024-02-21T17:43:15.774Z,7.0
2024-02-21T17:46:16.340Z,3.0
2024-02-21T17:48:17.241Z,1.0
2024-02-21T17:51:18.100Z,99.0
2024-02-21T17:53:18.921Z,99.0
2024-02-21T17:56:19.762Z,99.0
2024-02-21T17:58:20.388Z,99.0
2024-02-21T18:01:21.050Z,99.0
2024-02-21T18:04:21.754Z,99.0
2024-02-21T18:09:22.440Z,2.0
2024-02-21T18:11:23.148Z,4.0
2024-02-21T18:14:23.766Z,9.0
2024-02-21T18:19:24.492Z,14.0
2024-02-21T18:21:28.760Z,17.0
2024-02-21T18:24:29.377Z,18.0
2024-02-21T18:26:29.892Z,17.0
2024-02-21T18:29:40.206Z,14.0
2024-02-21T18:31:44.481Z,12.0
2024-02-21T18:33:45.132Z,7.0
2024-02-21T18:36:45.713Z,3.0
2024-02-21T18:39:46.271Z,99.0
2024-02-21T18:41:46.810Z,99.0
2024-02-21T18:44:47.705Z,99.0
2024-02-21T18:49:48.526Z,99.0
2024-02-21T18:51:49.247Z,99.0
2024-02-21T18:54:49.858Z,99.0
2024-02-21T18:56:50.436Z,1.0
2024-02-21T18:59:51.008Z,2.0
2024-02-21T19:01:51.574Z,4.0
2024-02-21T19:04:52.675Z,7.0
2024-02-21T19:06:53.593Z,8.0
2024-02-21T19:09:54.268Z,9.0
2024-02-21T19:12:54.822Z,9.0
2024-02-21T19:14:55.409Z,10.0
2024-02-21T19:17:56.119Z,11.0
2024-02-21T19:19:56.855Z,12.0
2024-02-21T19:22:57.647Z,12.0
2024-02-21T19:24:58.236Z,12.0
2024-02-21T19:29:58.773Z,99.0
2024-02-21T19:32:59.476Z,99.0
2024-02-21T19:35:00.337Z,99.0
2024-02-21T19:38:01.345Z,99.0
2024-02-21T19:40:02.063Z,99.0
2024-02-21T19:43:02.627Z,99.0
2024-02-21T19:45:03.190Z,99.0
2024-02-21T19:48:04.012Z,99.0
2024-02-21T19:51:05.167Z,5.0
2024-02-21T19:53:06.012Z,2.0
2024-02-21T19:56:06.839Z,99.0
2024-02-21T19:58:07.675Z,99.0
2024-02-21T20:00:08.278Z,99.0
2024-02-21T20:03:08.970Z,99.0
2024-02-21T20:06:09.718Z,99.0
2024-02-21T20:11:10.732Z,8.0
2024-02-21T20:13:11.608Z,12.0
2024-02-21T20:16:12.170Z,14.0
2024-02-21T20:18:12.852Z,18.0
2024-02-21T20:21:13.824Z,18.0
2024-02-21T20:23:14.498Z,19.0
2024-02-21T20:26:15.318Z,20.0
2024-02-21T20:28:16.120Z,20.0
2024-02-21T20:31:16.758Z,21.0
2024-02-21T20:33:17.442Z,23.0
2024-02-21T20:36:18.118Z,23.0
2024-02-21T20:39:18.701Z,23.0
2024-02-21T20:41:19.300Z,22.0
2024-02-21T20:44:20.119Z,23.0
2024-02-21T20:46:20.642Z,23.0
2024-02-21T20:51:21.335Z,21.0
2024-02-21T20:54:21.902Z,22.0
2024-02-21T20:56:22.535Z,22.0
2024-02-21T20:59:23.162Z,21.0
2024-02-21T21:01:23.858Z,22.0
2024-02-21T21:04:24.960Z,22.0
2024-02-21T21:06:25.800Z,24.0
2024-02-21T21:09:26.382Z,22.0
2024-02-21T21:12:27.063Z,23.0
2024-02-21T21:14:28.210Z,22.0
2024-02-21T21:16:29.154Z,21.0
2024-02-21T21:19:29.878Z,21.0
2024-02-21T21:22:30.669Z,20.0
2024-02-21T21:24:31.323Z,21.0
2024-02-21T21:27:32.071Z,21.0
2024-02-21T21:32:32.856Z,21.0
2024-02-21T21:34:33.753Z,21.0
2024-02-21T21:37:34.571Z,21.0
2024-02-21T21:39:35.115Z,22.0
2024-02-21T21:42:35.669Z,22.0
2024-02-21T21:44:36.457Z,22.0
2024-02-21T21:47:37.041Z,22.0
2024-02-21T21:49:37.732Z,22.0
2024-02-21T21:52:38.380Z,22.0
2024-02-21T21:54:38.938Z,21.0
2024-02-21T21:57:39.486Z,22.0
2024-02-21T21:59:40.066Z,22.0
2024-02-21T22:02:40.745Z,24.0
2024-02-21T22:05:41.425Z,24.0
2024-02-21T22:07:42.011Z,24.0
2024-02-21T22:12:42.666Z,25.0
2024-02-21T22:15:43.207Z,24.0
2024-02-21T22:17:43.840Z,24.0
2024-02-21T22:20:44.498Z,24.0
2024-02-21T22:22:45.142Z,23.0
2024-02-21T22:25:45.813Z,22.0
2024-02-21T22:27:46.447Z,23.0
2024-02-21T22:30:47.032Z,22.0
2024-02-21T22:32:47.762Z,22.0
2024-02-21T22:35:48.500Z,22.0
2024-02-21T22:38:49.182Z,22.0
2024-02-21T22:40:49.858Z,20.0
2024-02-21T22:43:50.728Z,20.0
2024-02-21T22:45:51.327Z,21.0
2024-02-21T22:48:52.028Z,21.0
2024-02-21T22:53:52.651Z,20.0
2024-02-21T22:55:53.373Z,20.0
2024-02-21T22:58:54.202Z,21.0
2024-02-21T23:00:54.880Z,20.0
2024-02-21T23:03:55.598Z,19.0
2024-02-21T23:05:56.543Z,19.0
2024-02-21T23:08:57.087Z,20.0
2024-02-21T23:10:57.839Z,20.0
2024-02-21T23:13:58.645Z,22.0
2024-02-21T23:15:59.275Z,23.0
2024-02-21T23:18:59.875Z,21.0
2024-02-21T23:24:00.568Z,19.0
2024-02-21T23:27:01.112Z,21.0
2024-02-21T23:29:01.855Z,20.0
2024-02-21T23:34:02.842Z,20.0
2024-02-21T23:37:03.676Z,19.0
2024-02-21T23:39:04.381Z,18.0
2024-02-21T23:42:04.916Z,19.0
2024-02-21T23:44:05.660Z,19.0
2024-02-21T23:47:06.527Z,19.0
2024-02-21T23:49:07.365Z,21.0
2024-02-21T23:52:08.075Z,21.0
2024-02-21T23:54:08.636Z,19.0
2024-02-21T23:57:09.251Z,19.0
2024-02-21T23:59:09.912Z,18.0
